NCAR-RAP Real-Time Weather Data

Output produced by METARs form (22 June 2017  22:11 UTC)
found at http://weather.rap.ucar.edu/surface/
 
Conditions at: KMCF observed 22 June 2017  21:58 UTC
Temperature: 32.6°C (91°F)
Dewpoint: 26.9°C (80°F) [RH = 72%]
Pressure (altimeter): 30.00 inches Hg (1016.0 mb)
[Sea-level pressure: 1016.2 mb]
Winds: from the SSW (210 degrees) at 7 MPH (6 knots; 3.1 m/s)
Visibility: 10 or more miles (16+ km)
Ceiling: at least 12,000 feet AGL
Clouds: sky clear below 12,000 feet AGL
Present Weather:
SOME DATA ABOVE MAY BE INACCURATE!!!
"$" is an indication the sensor requires maintenance
KMCF 222158Z AUTO 21006KT 10SM CLR 33/27 A3000 RMK AO2 SLP162 T03260269 $

Conditions at: KMCF observed 22 June 2017  20:58 UTC
Temperature: 33.7°C (93°F)
Dewpoint: 26.7°C (80°F) [RH = 67%]
Pressure (altimeter): 30.01 inches Hg (1016.3 mb)
[Sea-level pressure: 1016.5 mb]
Winds: from the SW (230 degrees) at 7 MPH (6 knots; 3.1 m/s)
Visibility: 10 or more miles (16+ km)
Ceiling: at least 12,000 feet AGL
Clouds: sky clear below 12,000 feet AGL
Present Weather:
SOME DATA ABOVE MAY BE INACCURATE!!!
"$" is an indication the sensor requires maintenance
KMCF 222058Z AUTO 23006KT 10SM CLR 34/27 A3001 RMK AO2 SLP165 T03370267 57012 $

Conditions at: KMCF observed 22 June 2017  19:58 UTC
Temperature: 34.3°C (94°F)
Dewpoint: 25.8°C (78°F) [RH = 61%]
Pressure (altimeter): 30.02 inches Hg (1016.7 mb)
[Sea-level pressure: 1016.9 mb]
Winds: from the SW (220 degrees) at 6 MPH (5 knots; 2.6 m/s)
Visibility: 10 or more miles (16+ km)
Ceiling: at least 12,000 feet AGL
Clouds: few clouds at 4900 feet AGL
Present Weather:
SOME DATA ABOVE MAY BE INACCURATE!!!
"$" is an indication the sensor requires maintenance
KMCF 221958Z AUTO 22005KT 10SM FEW049 34/26 A3002 RMK AO2 SLP169 T03430258 $

Conditions at: KMCF observed 22 June 2017  18:58 UTC
Temperature: 34.6°C (94°F)
Dewpoint: 25.7°C (78°F) [RH = 60%]
Pressure (altimeter): 30.03 inches Hg (1017.0 mb)
[Sea-level pressure: 1017.2 mb]
Winds: from the ESE (120 degrees) at 8 MPH (7 knots; 3.6 m/s)
Visibility: 10 or more miles (16+ km)
Ceiling: 19000 feet AGL
Clouds: scattered clouds at 4700 feet AGL
scattered clouds at 17000 feet AGL
broken clouds at 19000 feet AGL
Present Weather:
SOME DATA ABOVE MAY BE INACCURATE!!!
"$" is an indication the sensor requires maintenance
KMCF 221858Z AUTO 12007KT 10SM SCT047 SCT170 BKN190 35/26 A3003 RMK AO2 SLP172 T03460257 $

Conditions at: KMCF observed 22 June 2017  17:58 UTC
Temperature: 33.7°C (93°F)
Dewpoint: 25.9°C (79°F) [RH = 64%]
Pressure (altimeter): 30.04 inches Hg (1017.4 mb)
[Sea-level pressure: 1017.5 mb]
Winds: from the E (90 degrees) at 5 MPH (4 knots; 2.1 m/s)
Visibility: 10 or more miles (16+ km)
Ceiling: 21000 feet AGL
Clouds: few clouds at 5500 feet AGL
scattered clouds at 14000 feet AGL
scattered clouds at 18000 feet AGL
broken clouds at 21000 feet AGL
Present Weather:
SOME DATA ABOVE MAY BE INACCURATE!!!
"$" is an indication the sensor requires maintenance
KMCF 221758Z AUTO 09004KT 10SM FEW055 SCT140 SCT180 BKN210 34/26 A3004 RMK AO2 SLP175 T03370259 10337 20262 58012 $

Conditions at: KMCF observed 22 June 2017  16:58 UTC
Temperature: 33.0°C (91°F)
Dewpoint: 26.6°C (80°F) [RH = 69%]
Pressure (altimeter): 30.06 inches Hg (1018.0 mb)
[Sea-level pressure: 1018.2 mb]
Winds: from the ESE (120 degrees) at 9 MPH (8 knots; 4.2 m/s)
Visibility: 10 or more miles (16+ km)
Ceiling: at least 12,000 feet AGL
Clouds: few clouds at 12000 feet AGL
scattered clouds at 20000 feet AGL
Present Weather:
SOME DATA ABOVE MAY BE INACCURATE!!!
"$" is an indication the sensor requires maintenance
KMCF 221658Z AUTO 12008KT 10SM FEW120 SCT200 33/27 A3006 RMK AO2 SLP182 T03300266 $

Conditions at: KMCF observed 22 June 2017  15:58 UTC
Temperature: 31.9°C (89°F)
Dewpoint: 26.8°C (80°F) [RH = 75%]
Pressure (altimeter): 30.07 inches Hg (1018.4 mb)
[Sea-level pressure: 1018.6 mb]
Winds: from the SSE (160 degrees) at 10 MPH (9 knots; 4.7 m/s)
Visibility: 10 or more miles (16+ km)
Ceiling: at least 12,000 feet AGL
Clouds: sky clear below 12,000 feet AGL
Present Weather:
SOME DATA ABOVE MAY BE INACCURATE!!!
"$" is an indication the sensor requires maintenance
KMCF 221558Z AUTO 16009KT 10SM CLR 32/27 A3007 RMK AO2 SLP186 T03190268 $

Conditions at: KMCF observed 22 June 2017  14:58 UTC
Temperature: 30.9°C (88°F)
Dewpoint: 26.6°C (80°F) [RH = 78%]
Pressure (altimeter): 30.08 inches Hg (1018.7 mb)
[Sea-level pressure: 1018.9 mb]
Winds: from the SSE (150 degrees) at 12 MPH (10 knots; 5.2 m/s)
Visibility: 10 or more miles (16+ km)
Ceiling: at least 12,000 feet AGL
Clouds: sky clear below 12,000 feet AGL
Present Weather:
SOME DATA ABOVE MAY BE INACCURATE!!!
"$" is an indication the sensor requires maintenance
KMCF 221458Z AUTO 15010KT 10SM CLR 31/27 A3008 RMK AO2 SLP189 T03090266 51007 $

Conditions at: KMCF observed 22 June 2017  13:58 UTC
Temperature: 29.6°C (85°F)
Dewpoint: 26.3°C (79°F) [RH = 83%]
Pressure (altimeter): 30.07 inches Hg (1018.4 mb)
[Sea-level pressure: 1018.6 mb]
Winds: from the SSE (150 degrees) at 12 MPH (10 knots; 5.2 m/s)
Visibility: 10 or more miles (16+ km)
Ceiling: at least 12,000 feet AGL
Clouds: sky clear below 12,000 feet AGL
Present Weather:
SOME DATA ABOVE MAY BE INACCURATE!!!
"$" is an indication the sensor requires maintenance
KMCF 221358Z AUTO 15010KT 10SM CLR 30/26 A3007 RMK AO2 SLP186 T02960263 $

Conditions at: KMCF observed 22 June 2017  12:58 UTC
Temperature: 27.8°C (82°F)
Dewpoint: 26.7°C (80°F) [RH = 94%]
Pressure (altimeter): 30.06 inches Hg (1018.0 mb)
[Sea-level pressure: 1018.2 mb]
Winds: from the SE (130 degrees) at 10 MPH (9 knots; 4.7 m/s)
Visibility: 10 or more miles (16+ km)
Ceiling: at least 12,000 feet AGL
Clouds: sky clear below 12,000 feet AGL
Present Weather:
SOME DATA ABOVE MAY BE INACCURATE!!!
"$" is an indication the sensor requires maintenance
KMCF 221258Z AUTO 13009KT 10SM CLR 28/27 A3006 RMK AO2 SLP182 T02780267 $

Conditions at: KMCF observed 22 June 2017  11:58 UTC
Temperature: 26.0°C (79°F)
Dewpoint: 26.0°C (79°F) [RH = 100%]
Pressure (altimeter): 30.05 inches Hg (1017.7 mb)
[Sea-level pressure: 1017.9 mb]
Winds: from the SE (140 degrees) at 7 MPH (6 knots; 3.1 m/s)
Visibility: 10 or more miles (16+ km)
Ceiling: at least 12,000 feet AGL
Clouds: few clouds at 900 feet AGL
Present Weather:
SOME DATA ABOVE MAY BE INACCURATE!!!
"$" is an indication the sensor requires maintenance
KMCF 221158Z AUTO 14006KT 10SM FEW009 26/26 A3005 RMK AO2 SLP179 T02600260 10260 20251 53009 $

Conditions at: KMCF observed 22 June 2017  11:39 UTC
Temperature: 26.0°C (79°F)
Dewpoint: 26.0°C (79°F) [RH = 100%]
Pressure (altimeter): 30.05 inches Hg (1017.7 mb)
[Sea-level pressure: 1017.9 mb]
Winds: from the SE (130 degrees) at 8 MPH (7 knots; 3.6 m/s)
Visibility: 10 or more miles (16+ km)
Ceiling: at least 12,000 feet AGL
Clouds: few clouds at 900 feet AGL
Present Weather: automated observation with no human augmentation;
there may or may not be significant weather present at this time
KMCF 221139Z AUTO 13007KT 10SM FEW009 26/26 A3005 RMK AO2 SLP179

Conditions at: KMCF observed 22 June 2017  10:58 UTC
Temperature: 25.1°C (77°F)
Dewpoint: 25.1°C (77°F) [RH = 100%]
Pressure (altimeter): 30.03 inches Hg (1017.0 mb)
[Sea-level pressure: 1017.2 mb]
Winds: from the ESE (110 degrees) at 8 MPH (7 knots; 3.6 m/s)
Visibility: 10 or more miles (16+ km)
Ceiling: at least 12,000 feet AGL
Clouds: sky clear below 12,000 feet AGL
Present Weather:
SOME DATA ABOVE MAY BE INACCURATE!!!
"$" is an indication the sensor requires maintenance
KMCF 221058Z AUTO 11007KT 10SM CLR 25/25 A3003 RMK AO2 SLP172 T02510251 $

Conditions at: KMCF observed 22 June 2017  09:58 UTC
Temperature: 25.4°C (78°F)
Dewpoint: 25.4°C (78°F) [RH = 100%]
Pressure (altimeter): 30.03 inches Hg (1017.0 mb)
[Sea-level pressure: 1017.2 mb]
Winds: from the ESE (120 degrees) at 8 MPH (7 knots; 3.6 m/s)
Visibility: 10 or more miles (16+ km)
Ceiling: at least 12,000 feet AGL
Clouds: sky clear below 12,000 feet AGL
Present Weather:
SOME DATA ABOVE MAY BE INACCURATE!!!
"$" is an indication the sensor requires maintenance
KMCF 220958Z AUTO 12007KT 10SM CLR 25/25 A3003 RMK AO2 SLP172 T02540254 $

Conditions at: KMCF observed 22 June 2017  08:58 UTC
Temperature: 25.3°C (78°F)
Dewpoint: 25.3°C (78°F) [RH = 100%]
Pressure (altimeter): 30.03 inches Hg (1017.0 mb)
[Sea-level pressure: 1017.2 mb]
Winds: from the ESE (120 degrees) at 9 MPH (8 knots; 4.2 m/s)
Visibility: 10 or more miles (16+ km)
Ceiling: at least 12,000 feet AGL
Clouds: sky clear below 12,000 feet AGL
Present Weather:
SOME DATA ABOVE MAY BE INACCURATE!!!
"$" is an indication the sensor requires maintenance
KMCF 220858Z AUTO 12008KT 10SM CLR 25/25 A3003 RMK AO2 SLP172 T02530253 56009 $

Conditions at: KMCF observed 22 June 2017  07:58 UTC
Temperature: 25.4°C (78°F)
Dewpoint: 25.4°C (78°F) [RH = 100%]
Pressure (altimeter): 30.03 inches Hg (1017.0 mb)
[Sea-level pressure: 1017.2 mb]
Winds: from the ESE (110 degrees) at 8 MPH (7 knots; 3.6 m/s)
Visibility: 10 or more miles (16+ km)
Ceiling: at least 12,000 feet AGL
Clouds: sky clear below 12,000 feet AGL
Present Weather:
SOME DATA ABOVE MAY BE INACCURATE!!!
"$" is an indication the sensor requires maintenance
KMCF 220758Z AUTO 11007KT 10SM CLR 25/25 A3003 RMK AO2 SLP172 T02540254 $

Conditions at: KMCF observed 22 June 2017  06:58 UTC
Temperature: 25.7°C (78°F)
Dewpoint: 25.0°C (77°F) [RH = 96%]
Pressure (altimeter): 30.04 inches Hg (1017.4 mb)
[Sea-level pressure: 1017.5 mb]
Winds: from the E (100 degrees) at 9 MPH (8 knots; 4.2 m/s)
Visibility: 10 or more miles (16+ km)
Ceiling: at least 12,000 feet AGL
Clouds: sky clear below 12,000 feet AGL
Present Weather:
SOME DATA ABOVE MAY BE INACCURATE!!!
"$" is an indication the sensor requires maintenance
KMCF 220658Z AUTO 10008KT 10SM CLR 26/25 A3004 RMK AO2 SLP175 T02570250 $

Conditions at: KMCF observed 22 June 2017  05:58 UTC
Temperature: 25.7°C (78°F)
Dewpoint: 24.7°C (76°F) [RH = 94%]
Pressure (altimeter): 30.05 inches Hg (1017.7 mb)
[Sea-level pressure: 1017.9 mb]
Winds: from the E (100 degrees) at 7 MPH (6 knots; 3.1 m/s)
Visibility: 10 or more miles (16+ km)
Ceiling: at least 12,000 feet AGL
Clouds: sky clear below 12,000 feet AGL
Present Weather:
SOME DATA ABOVE MAY BE INACCURATE!!!
"$" is an indication the sensor requires maintenance
KMCF 220558Z AUTO 10006KT 10SM CLR 26/25 A3005 RMK AO2 SLP179 T02570247 10295 20257 58002 $

Conditions at: KMCF observed 22 June 2017  04:58 UTC
Temperature: 25.7°C (78°F)
Dewpoint: 24.7°C (76°F) [RH = 94%]
Pressure (altimeter): 30.07 inches Hg (1018.4 mb)
[Sea-level pressure: 1018.6 mb]
Winds: from the E (100 degrees) at 7 MPH (6 knots; 3.1 m/s)
Visibility: 10 or more miles (16+ km)
Ceiling: at least 12,000 feet AGL
Clouds: sky clear below 12,000 feet AGL
Present Weather:
SOME DATA ABOVE MAY BE INACCURATE!!!
"$" is an indication the sensor requires maintenance
KMCF 220458Z AUTO 10006KT 10SM CLR 26/25 A3007 RMK AO2 SLP186 T02570247 403330254 $